Kirishima Maru No.7 — JL6513 — position and weather

sailwx.info

Track history (hours):
 
Tides and Currents Weather Stations Pressure Air Temp Water Temp Dewpoint Dewpoint Depression Visibility Wind Speed Wind Dir Waves Ship Positions

Kirishima Maru No.7

Last reported at 2018-Jun-22 07:58 UTC. Time now 2018-Jun-23 00:55 UTC.
Position N 35°06' E 139°41'.

Length 104 m; draft 5.6 m.

Type: Tanker. MMSI: 431500526.

Date/timePositionNaut miles runAvg speedWind from/ knotsBaromVisibWave heightAir tempDewpointWater temp
2018-Jun-22 07:58N 35°06' E 139°41'611.9
2018-Jun-22 07:30N 35°10' E 139°45'612.1
2018-Jun-22 07:00N 35°17' E 139°45'611.7
2018-Jun-22 06:30N 35°22' E 139°42'612.0
2018-Jun-22 06:00N 35°27' E 139°47'712.8
2018-Jun-22 05:30N 35°31' E 139°53'5 0.7
2018-Jun-21 22:12N 35°34' E 139°58'0 0.4
2018-Jun-21 21:59N 35°34' E 139°58'0 0.0
2018-Jun-21 12:35N 35°34' E 139°58'0 0.0
2018-Jun-21 12:29N 35°34' E 139°58'1 0.2
2018-Jun-21 07:04N 35°33' E 139°59'211.4
2018-Jun-21 06:54N 35°32' E 140°01'2 4.4
2018-Jun-21 06:28N 35°31' E 140°02'0 0.0
2018-Jun-21 00:40N 35°31' E 140°02'0 0.0
2018-Jun-21 00:28N 35°31' E 140°02'0 0.0
2018-Jun-20 23:28N 35°31' E 140°02'0 0.0
2018-Jun-20 22:58N 35°31' E 140°02'0 0.0
2018-Jun-20 22:25N 35°31' E 140°02'0 0.2
2018-Jun-20 21:59N 35°31' E 140°02'1 2.9
2018-Jun-20 21:29N 35°32' E 140°01'0 0.0
2018-Jun-20 20:57N 35°32' E 140°01'0 0.0
2018-Jun-20 20:27N 35°32' E 140°01'0 0.0
2018-Jun-20 19:45N 35°32' E 140°01'0 0.0
2018-Jun-20 19:27N 35°32' E 140°01'0 0.0
2018-Jun-20 19:00N 35°32' E 140°01'0 0.0
2018-Jun-20 12:33N 35°32' E 140°01'0 0.0
2018-Jun-20 11:21N 35°32' E 140°01'0 0.0
2018-Jun-20 11:00N 35°32' E 140°01'0 0.0
2018-Jun-20 10:30N 35°32' E 140°01'0 0.1
2018-Jun-20 10:00N 35°32' E 140°01'611.1
2018-Jun-20 09:30N 35°31' E 139°54'510.4
2018-Jun-20 09:00N 35°32' E 139°48'0 0.1
2018-Jun-20 08:28N 35°32' E 139°48'0 0.0
2018-Jun-20 07:58N 35°32' E 139°48'0 0.0
2018-Jun-20 07:28N 35°32' E 139°48'0 0.0
2018-Jun-20 06:58N 35°32' E 139°48'0 0.0
2018-Jun-20 06:28N 35°32' E 139°48'0 0.0
2018-Jun-20 05:58N 35°32' E 139°48'0 0.0
2018-Jun-20 05:28N 35°32' E 139°48'0 0.0
2018-Jun-20 04:58N 35°32' E 139°48'0 0.0
2018-Jun-20 04:30N 35°32' E 139°48'1 2.3
2018-Jun-20 04:00N 35°31' E 139°49'1 2.2
2018-Jun-20 03:22N 35°30' E 139°50'0 0.0
2018-Jun-20 02:58N 35°30' E 139°50'0 0.1
2018-Jun-20 02:28N 35°30' E 139°50'2 3.5
2018-Jun-20 02:00N 35°30' E 139°52'611.6
2018-Jun-20 01:30N 35°25' E 139°47'611.5
2018-Jun-20 01:00N 35°20' E 139°44'611.1
2018-Jun-20 00:30N 35°15' E 139°47'611.6
2018-Jun-20 00:00N 35°09' E 139°46'24610.2
2018-Jun-18 23:57N 33°52' E 135°02'510.6
2018-Jun-18 23:30N 33°56' E 135°01'611.5
2018-Jun-18 23:00N 34°02' E 135°02'611.5
2018-Jun-18 22:30N 34°08' E 135°04'4 8.4
2018-Jun-18 22:00N 34°09' E 135°09'0 0.0
2018-Jun-18 21:29N 34°09' E 135°09'0 0.0
2018-Jun-18 20:59N 34°09' E 135°09'0 0.0
2018-Jun-18 20:29N 34°09' E 135°09'0 0.0
2018-Jun-18 19:59N 34°09' E 135°09'0 0.0
2018-Jun-18 19:29N 34°09' E 135°09'0 0.0
2018-Jun-18 18:59N 34°09' E 135°09'0 0.0
2018-Jun-18 18:29N 34°09' E 135°09'0 0.1
2018-Jun-18 17:59N 34°09' E 135°09'0 0.0
2018-Jun-18 17:29N 34°09' E 135°09'0 0.0
2018-Jun-18 16:59N 34°09' E 135°09'0 0.0
2018-Jun-18 16:29N 34°09' E 135°09'0 0.0
2018-Jun-18 15:59N 34°09' E 135°09'0 0.0
2018-Jun-18 15:29N 34°09' E 135°09'0 0.0
2018-Jun-18 14:59N 34°09' E 135°09'0 0.1
2018-Jun-18 14:26N 34°09' E 135°09'0 0.0
2018-Jun-18 13:59N 34°09' E 135°09'0 0.0
2018-Jun-18 13:29N 34°09' E 135°09'0 0.0
2018-Jun-18 12:59N 34°09' E 135°09'0 0.0
2018-Jun-18 12:29N 34°09' E 135°09'1 2.5
2018-Jun-18 12:01N 34°09' E 135°08'510.7
2018-Jun-18 11:30N 34°05' E 135°03'612.4
2018-Jun-18 11:00N 33°59' E 135°02'612.5
2018-Jun-18 10:31N 33°53' E 135°02'612.2
2018-Jun-18 10:00N 33°48' E 135°06'2 0.1
2018-Jun-17 18:13N 33°47' E 135°03'312.4
2018-Jun-17 17:59N 33°49' E 135°01'612.0
2018-Jun-17 17:31N 33°55' E 134°59'612.2
2018-Jun-17 17:00N 34°01' E 134°59'611.9
2018-Jun-17 16:30N 34°07' E 134°58'611.8
2018-Jun-17 16:00N 34°13' E 134°58'510.7
2018-Jun-17 15:30N 34°18' E 134°58'5 9.1
2018-Jun-17 15:00N 34°22' E 135°00'510.7
2018-Jun-17 14:31N 34°27' E 135°01'510.5
2018-Jun-17 14:00N 34°33' E 135°02'4 7.5
2018-Jun-17 13:30N 34°36' E 135°02'4 6.9
2018-Jun-17 13:00N 34°37' E 134°58'4 8.8
2018-Jun-17 12:30N 34°35' E 134°53'5 9.4
2018-Jun-17 12:00N 34°33' E 134°48'611.1
2018-Jun-17 11:30N 34°31' E 134°42'611.6
2018-Jun-17 11:00N 34°28' E 134°35'611.9
2018-Jun-17 10:31N 34°26' E 134°28'611.7
2018-Jun-17 10:00N 34°24' E 134°22'611.6
2018-Jun-17 09:30N 34°23' E 134°15'3 0.1
2018-Jun-16 12:09N 34°25' E 134°12'214.9
2018-Jun-16 12:00N 34°24' E 134°15'713.9
2018-Jun-16 11:30N 34°22' E 134°23'713.6
2018-Jun-16 11:00N 34°19' E 134°30'913.6
2018-Jun-16 10:21N 34°14' E 134°39'713.7
2018-Jun-16 09:49N 34°08' E 134°44'513.1
2018-Jun-16 09:28N 34°04' E 134°48'613.4
2018-Jun-16 09:00N 33°60' E 134°53'713.1
2018-Jun-16 08:29N 33°55' E 134°58'613.1
2018-Jun-16 08:00N 33°50' E 135°03'712.9
2018-Jun-16 07:27N 33°44' E 135°08'23911.0
2018-Jun-15 09:41N 35°06' E 139°41'313.5
2018-Jun-15 09:30N 35°08' E 139°43'613.2
2018-Jun-15 09:00N 35°14' E 139°46'612.2
2018-Jun-15 08:30N 35°19' E 139°43'611.7
2018-Jun-15 08:00N 35°25' E 139°44'713.3
2018-Jun-15 07:30N 35°29' E 139°50'2 0.3
2018-Jun-14 23:32N 35°30' E 139°53'111.4
2018-Jun-14 23:30N 35°30' E 139°52'510.9
2018-Jun-14 23:00N 35°26' E 139°48'510.3
2018-Jun-14 22:30N 35°21' E 139°45'5 9.6
2018-Jun-14 22:00N 35°16' E 139°46'510.5
2018-Jun-14 21:29N 35°11' E 139°47'  
Track history (hours):
 
Tides and Currents Weather Stations Pressure Air Temp Water Temp Dewpoint Dewpoint Depression Visibility Wind Speed Wind Dir Waves Ship Positions

Kirishima Maru No.7

Last reported at 2018-Jun-22 07:58 UTC. Time now 2018-Jun-23 00:55 UTC.
Position N 35°06' E 139°41'.

Length 104 m; draft 5.6 m.

Type: Tanker. MMSI: 431500526.

Date/timePositionNaut miles runAvg speedWind from/ knotsBaromVisibWave heightAir tempDewpointWater temp
2018-Jun-22 07:58N 35°06' E 139°41'611.9
2018-Jun-22 07:30N 35°10' E 139°45'612.1
2018-Jun-22 07:00N 35°17' E 139°45'611.7
2018-Jun-22 06:30N 35°22' E 139°42'612.0
2018-Jun-22 06:00N 35°27' E 139°47'712.8
2018-Jun-22 05:30N 35°31' E 139°53'5 0.7
2018-Jun-21 22:12N 35°34' E 139°58'0 0.4
2018-Jun-21 21:59N 35°34' E 139°58'0 0.0
2018-Jun-21 12:35N 35°34' E 139°58'0 0.0
2018-Jun-21 12:29N 35°34' E 139°58'1 0.2
2018-Jun-21 07:04N 35°33' E 139°59'211.4
2018-Jun-21 06:54N 35°32' E 140°01'2 4.4
2018-Jun-21 06:28N 35°31' E 140°02'0 0.0
2018-Jun-21 00:40N 35°31' E 140°02'0 0.0
2018-Jun-21 00:28N 35°31' E 140°02'0 0.0
2018-Jun-20 23:28N 35°31' E 140°02'0 0.0
2018-Jun-20 22:58N 35°31' E 140°02'0 0.0
2018-Jun-20 22:25N 35°31' E 140°02'0 0.2
2018-Jun-20 21:59N 35°31' E 140°02'1 2.9
2018-Jun-20 21:29N 35°32' E 140°01'0 0.0
2018-Jun-20 20:57N 35°32' E 140°01'0 0.0
2018-Jun-20 20:27N 35°32' E 140°01'0 0.0
2018-Jun-20 19:45N 35°32' E 140°01'0 0.0
2018-Jun-20 19:27N 35°32' E 140°01'0 0.0
2018-Jun-20 19:00N 35°32' E 140°01'0 0.0
2018-Jun-20 12:33N 35°32' E 140°01'0 0.0
2018-Jun-20 11:21N 35°32' E 140°01'0 0.0
2018-Jun-20 11:00N 35°32' E 140°01'0 0.0
2018-Jun-20 10:30N 35°32' E 140°01'0 0.1
2018-Jun-20 10:00N 35°32' E 140°01'611.1
2018-Jun-20 09:30N 35°31' E 139°54'510.4
2018-Jun-20 09:00N 35°32' E 139°48'0 0.1
2018-Jun-20 08:28N 35°32' E 139°48'0 0.0
2018-Jun-20 07:58N 35°32' E 139°48'0 0.0
2018-Jun-20 07:28N 35°32' E 139°48'0 0.0
2018-Jun-20 06:58N 35°32' E 139°48'0 0.0
2018-Jun-20 06:28N 35°32' E 139°48'0 0.0
2018-Jun-20 05:58N 35°32' E 139°48'0 0.0
2018-Jun-20 05:28N 35°32' E 139°48'0 0.0
2018-Jun-20 04:58N 35°32' E 139°48'0 0.0
2018-Jun-20 04:30N 35°32' E 139°48'1 2.3
2018-Jun-20 04:00N 35°31' E 139°49'1 2.2
2018-Jun-20 03:22N 35°30' E 139°50'0 0.0
2018-Jun-20 02:58N 35°30' E 139°50'0 0.1
2018-Jun-20 02:28N 35°30' E 139°50'2 3.5
2018-Jun-20 02:00N 35°30' E 139°52'611.6
2018-Jun-20 01:30N 35°25' E 139°47'611.5
2018-Jun-20 01:00N 35°20' E 139°44'611.1
2018-Jun-20 00:30N 35°15' E 139°47'611.6
2018-Jun-20 00:00N 35°09' E 139°46'24610.2
2018-Jun-18 23:57N 33°52' E 135°02'510.6
2018-Jun-18 23:30N 33°56' E 135°01'611.5
2018-Jun-18 23:00N 34°02' E 135°02'611.5
2018-Jun-18 22:30N 34°08' E 135°04'4 8.4
2018-Jun-18 22:00N 34°09' E 135°09'0 0.0
2018-Jun-18 21:29N 34°09' E 135°09'0 0.0
2018-Jun-18 20:59N 34°09' E 135°09'0 0.0
2018-Jun-18 20:29N 34°09' E 135°09'0 0.0
2018-Jun-18 19:59N 34°09' E 135°09'0 0.0
2018-Jun-18 19:29N 34°09' E 135°09'0 0.0
2018-Jun-18 18:59N 34°09' E 135°09'0 0.0
2018-Jun-18 18:29N 34°09' E 135°09'0 0.1
2018-Jun-18 17:59N 34°09' E 135°09'0 0.0
2018-Jun-18 17:29N 34°09' E 135°09'0 0.0
2018-Jun-18 16:59N 34°09' E 135°09'0 0.0
2018-Jun-18 16:29N 34°09' E 135°09'0 0.0
2018-Jun-18 15:59N 34°09' E 135°09'0 0.0
2018-Jun-18 15:29N 34°09' E 135°09'0 0.0
2018-Jun-18 14:59N 34°09' E 135°09'0 0.1
2018-Jun-18 14:26N 34°09' E 135°09'0 0.0
2018-Jun-18 13:59N 34°09' E 135°09'0 0.0
2018-Jun-18 13:29N 34°09' E 135°09'0 0.0
2018-Jun-18 12:59N 34°09' E 135°09'0 0.0
2018-Jun-18 12:29N 34°09' E 135°09'1 2.5
2018-Jun-18 12:01N 34°09' E 135°08'510.7
2018-Jun-18 11:30N 34°05' E 135°03'612.4
2018-Jun-18 11:00N 33°59' E 135°02'612.5
2018-Jun-18 10:31N 33°53' E 135°02'612.2
2018-Jun-18 10:00N 33°48' E 135°06'2 0.1
2018-Jun-17 18:13N 33°47' E 135°03'312.4
2018-Jun-17 17:59N 33°49' E 135°01'612.0
2018-Jun-17 17:31N 33°55' E 134°59'612.2
2018-Jun-17 17:00N 34°01' E 134°59'611.9
2018-Jun-17 16:30N 34°07' E 134°58'611.8
2018-Jun-17 16:00N 34°13' E 134°58'510.7
2018-Jun-17 15:30N 34°18' E 134°58'5 9.1
2018-Jun-17 15:00N 34°22' E 135°00'510.7
2018-Jun-17 14:31N 34°27' E 135°01'510.5
2018-Jun-17 14:00N 34°33' E 135°02'4 7.5
2018-Jun-17 13:30N 34°36' E 135°02'4 6.9
2018-Jun-17 13:00N 34°37' E 134°58'4 8.8
2018-Jun-17 12:30N 34°35' E 134°53'5 9.4
2018-Jun-17 12:00N 34°33' E 134°48'611.1
2018-Jun-17 11:30N 34°31' E 134°42'611.6
2018-Jun-17 11:00N 34°28' E 134°35'611.9
2018-Jun-17 10:31N 34°26' E 134°28'611.7
2018-Jun-17 10:00N 34°24' E 134°22'611.6
2018-Jun-17 09:30N 34°23' E 134°15'3 0.1
2018-Jun-16 12:09N 34°25' E 134°12'214.9
2018-Jun-16 12:00N 34°24' E 134°15'713.9
2018-Jun-16 11:30N 34°22' E 134°23'713.6
2018-Jun-16 11:00N 34°19' E 134°30'913.6
2018-Jun-16 10:21N 34°14' E 134°39'713.7
2018-Jun-16 09:49N 34°08' E 134°44'513.1
2018-Jun-16 09:28N 34°04' E 134°48'613.4
2018-Jun-16 09:00N 33°60' E 134°53'713.1
2018-Jun-16 08:29N 33°55' E 134°58'613.1
2018-Jun-16 08:00N 33°50' E 135°03'712.9
2018-Jun-16 07:27N 33°44' E 135°08'23911.0
2018-Jun-15 09:41N 35°06' E 139°41'313.5
2018-Jun-15 09:30N 35°08' E 139°43'613.2
2018-Jun-15 09:00N 35°14' E 139°46'612.2
2018-Jun-15 08:30N 35°19' E 139°43'611.7
2018-Jun-15 08:00N 35°25' E 139°44'713.3
2018-Jun-15 07:30N 35°29' E 139°50'2 0.3
2018-Jun-14 23:32N 35°30' E 139°53'111.4
2018-Jun-14 23:30N 35°30' E 139°52'510.9
2018-Jun-14 23:00N 35°26' E 139°48'510.3
2018-Jun-14 22:30N 35°21' E 139°45'5 9.6
2018-Jun-14 22:00N 35°16' E 139°46'510.5
2018-Jun-14 21:29N 35°11' E 139°47'  

Dump ship's entire track history